Time;durP1;ratioP1;P1;durP2;ratioP2;P2;SDS_P1;SDS_P2;PMS_P1;PMS_P2;Temp;Humidity;BMP_temperature;BMP_pressure;BME280_temperature;BME280_humidity;BME280_pressure;Samples;Min_cycle;Max_cycle;Signal;HPM_P1;HPM_P2
2024/03/20 00:00:28;;;;;;;9.60;4.20;;;11.70;99.90;;;;;;4995861;28;20489;-71
2024/03/20 00:02:54;;;;;;;7.10;3.93;;;11.70;99.90;;;;;;4998605;28;20910;-70
2024/03/20 00:05:23;;;;;;;11.30;5.37;;;11.80;99.90;;;;;;4997393;28;20443;-71
2024/03/20 00:07:50;;;;;;;6.37;4.30;;;11.80;99.90;;;;;;4994706;28;20975;-71
2024/03/20 00:10:17;;;;;;;6.97;5.13;;;11.80;99.90;;;;;;4998533;28;20591;-71
2024/03/20 00:12:44;;;;;;;10.97;4.73;;;11.80;99.90;;;;;;4996587;28;20488;-71
2024/03/20 00:15:11;;;;;;;7.87;5.03;;;11.70;99.90;;;;;;4996466;28;20454;-71
2024/03/20 00:17:38;;;;;;;7.63;4.47;;;11.70;99.90;;;;;;4989364;28;20443;-71
2024/03/20 00:20:06;;;;;;;6.90;4.00;;;11.60;99.90;;;;;;4996820;28;20495;-71
2024/03/20 00:22:35;;;;;;;7.70;4.40;;;11.60;99.90;;;;;;4997752;28;20473;-71
2024/03/20 00:25:02;;;;;;;7.77;4.33;;;11.50;99.90;;;;;;4997669;28;20473;-71
2024/03/20 00:27:28;;;;;;;7.77;4.50;;;11.40;99.90;;;;;;4993362;28;20515;-70
2024/03/20 00:29:55;;;;;;;8.77;5.40;;;11.50;99.90;;;;;;5001345;28;20477;-70
2024/03/20 00:32:22;;;;;;;6.53;4.20;;;11.50;99.90;;;;;;4992134;28;20462;-70
2024/03/20 00:34:49;;;;;;;6.00;4.30;;;11.50;99.90;;;;;;4995837;28;20435;-70
2024/03/20 00:37:16;;;;;;;10.73;4.03;;;11.50;99.90;;;;;;4989864;28;20448;-70
2024/03/20 00:39:44;;;;;;;5.60;3.60;;;11.50;99.90;;;;;;4993881;28;20500;-70
2024/03/20 00:42:10;;;;;;;5.87;4.60;;;11.40;99.90;;;;;;4993009;28;20449;-70
2024/03/20 00:44:37;;;;;;;5.53;3.97;;;11.40;99.90;;;;;;4999050;28;20432;-70
2024/03/20 00:47:05;;;;;;;7.33;3.53;;;11.40;99.90;;;;;;4992071;28;20477;-70
2024/03/20 00:49:32;;;;;;;9.93;5.73;;;11.40;99.90;;;;;;5003264;28;20510;-71
2024/03/20 00:51:59;;;;;;;7.20;3.80;;;11.30;99.90;;;;;;5001568;28;20469;-71
2024/03/20 00:54:25;;;;;;;6.00;3.83;;;11.30;99.90;;;;;;5000764;28;20549;-70
2024/03/20 00:56:54;;;;;;;7.60;5.30;;;11.40;99.90;;;;;;4993952;28;20821;-70
2024/03/20 00:59:20;;;;;;;9.90;4.60;;;11.30;99.90;;;;;;5001703;28;20857;-70
2024/03/20 01:01:48;;;;;;;11.00;6.10;;;11.30;99.90;;;;;;4996476;28;20522;-71
2024/03/20 01:04:16;;;;;;;10.17;5.73;;;11.20;99.90;;;;;;4999612;28;20502;-70
2024/03/20 01:06:44;;;;;;;15.03;9.10;;;11.20;99.90;;;;;;4991185;28;20482;-70
2024/03/20 01:09:11;;;;;;;28.83;10.53;;;11.20;99.90;;;;;;4999354;28;20884;-71
2024/03/20 01:11:37;;;;;;;19.07;8.80;;;11.20;99.90;;;;;;4994688;28;20428;-70
2024/03/20 01:14:05;;;;;;;21.90;9.27;;;11.30;99.90;;;;;;5002684;28;20555;-70
2024/03/20 01:16:32;;;;;;;23.20;8.90;;;11.30;99.90;;;;;;4989915;28;20449;-70
2024/03/20 01:19:00;;;;;;;23.30;8.37;;;11.20;99.90;;;;;;4994657;28;20832;-71
2024/03/20 01:21:26;;;;;;;17.47;8.30;;;11.20;99.90;;;;;;4996181;28;20473;-70
2024/03/20 01:23:53;;;;;;;14.93;7.73;;;11.20;99.90;;;;;;4995613;28;20431;-70
2024/03/20 01:26:21;;;;;;;17.90;6.03;;;11.10;99.90;;;;;;4994318;28;20558;-70
2024/03/20 01:28:48;;;;;;;14.90;7.63;;;11.10;99.90;;;;;;4995914;28;20570;-73
2024/03/20 01:31:17;;;;;;;10.13;6.03;;;11.00;99.90;;;;;;4994400;28;20467;-71
2024/03/20 01:33:43;;;;;;;12.30;6.83;;;10.80;99.90;;;;;;4997261;28;20961;-72
2024/03/20 01:36:10;;;;;;;12.77;7.20;;;10.70;99.90;;;;;;4979946;28;20432;-71
2024/03/20 01:38:37;;;;;;;11.30;6.67;;;10.70;99.90;;;;;;4991657;28;20435;-72
2024/03/20 01:41:04;;;;;;;15.00;6.73;;;10.80;99.90;;;;;;4991579;28;20500;-71
2024/03/20 01:43:31;;;;;;;15.73;6.30;;;10.80;99.90;;;;;;4996745;28;20942;-72
2024/03/20 01:46:06;;;;;;;17.30;8.33;;;10.70;99.90;;;;;;4990085;28;20439;-72
2024/03/20 01:48:34;;;;;;;13.60;6.37;;;10.60;99.90;;;;;;4996145;28;20451;-71
2024/03/20 01:51:01;;;;;;;15.07;6.17;;;10.60;99.90;;;;;;4991711;28;20580;-71
2024/03/20 01:53:28;;;;;;;8.60;5.70;;;10.60;99.90;;;;;;4990416;28;20489;-71
2024/03/20 01:55:55;;;;;;;11.63;6.43;;;10.50;99.90;;;;;;4992561;28;20440;-71
2024/03/20 01:58:21;;;;;;;10.83;6.57;;;10.50;99.90;;;;;;4991131;28;20437;-71
2024/03/20 02:00:48;;;;;;;11.20;6.17;;;10.50;99.90;;;;;;4993229;28;20460;-71
2024/03/20 02:03:17;;;;;;;10.33;6.07;;;10.50;99.90;;;;;;4990487;28;20435;-71
2024/03/20 02:05:46;;;;;;;15.40;6.17;;;10.30;99.90;;;;;;4995266;28;20475;-71
2024/03/20 02:08:12;;;;;;;10.30;4.70;;;10.40;99.90;;;;;;4993056;28;20488;-71
2024/03/20 02:10:39;;;;;;;8.10;6.47;;;10.40;99.90;;;;;;4999822;28;21050;-71
2024/03/20 02:13:07;;;;;;;7.00;5.80;;;10.30;99.90;;;;;;4989732;28;20925;-71
2024/03/20 02:15:37;;;;;;;7.40;5.23;;;10.30;99.90;;;;;;4989231;28;20876;-71
2024/03/20 02:18:05;;;;;;;10.40;4.67;;;10.40;99.90;;;;;;4994491;28;20450;-71
2024/03/20 02:20:32;;;;;;;6.40;5.50;;;10.30;99.90;;;;;;4990530;28;20510;-71
2024/03/20 02:23:00;;;;;;;7.63;4.20;;;10.40;99.90;;;;;;4992817;28;20555;-72
2024/03/20 02:25:29;;;;;;;9.63;4.57;;;10.40;99.90;;;;;;4989851;28;20994;-72
2024/03/20 02:27:56;;;;;;;7.03;5.13;;;10.40;99.90;;;;;;4994339;28;20485;-72
2024/03/20 02:30:23;;;;;;;10.40;5.10;;;10.30;99.90;;;;;;4993391;28;20492;-72
2024/03/20 02:32:50;;;;;;;11.43;4.20;;;10.30;99.90;;;;;;4995140;28;20443;-72
2024/03/20 02:35:17;;;;;;;9.27;4.80;;;10.30;99.90;;;;;;4992139;28;20538;-71
2024/03/20 02:37:43;;;;;;;4.80;3.87;;;10.40;99.90;;;;;;4991928;28;20468;-70
2024/03/20 02:40:12;;;;;;;8.00;4.73;;;10.40;99.90;;;;;;4994522;28;20477;-71
2024/03/20 02:42:39;;;;;;;5.70;4.40;;;10.30;99.90;;;;;;4991525;28;20477;-72
2024/03/20 02:45:06;;;;;;;7.23;4.10;;;10.30;99.90;;;;;;4992973;28;20488;-71
2024/03/20 02:47:33;;;;;;;10.57;4.40;;;10.20;99.90;;;;;;4988922;28;20485;-71
2024/03/20 02:50:00;;;;;;;5.23;4.53;;;10.20;99.90;;;;;;4995141;28;21100;-71
2024/03/20 02:52:26;;;;;;;4.47;2.63;;;10.10;99.90;;;;;;4994234;28;20461;-71
2024/03/20 02:54:53;;;;;;;5.13;3.90;;;10.00;99.90;;;;;;4995764;28;20440;-71
2024/03/20 02:57:21;;;;;;;4.10;3.10;;;9.90;99.90;;;;;;4990395;28;20937;-71
2024/03/20 02:59:48;;;;;;;6.63;5.97;;;9.70;99.90;;;;;;4995849;28;20990;-70
2024/03/20 03:02:15;;;;;;;8.20;3.73;;;9.70;99.90;;;;;;4990615;28;21188;-71
2024/03/20 03:04:42;;;;;;;9.13;4.00;;;9.80;99.90;;;;;;4994479;28;20439;-71
2024/03/20 03:07:08;;;;;;;3.87;3.40;;;9.80;99.90;;;;;;4981054;28;20480;-71
2024/03/20 03:09:37;;;;;;;8.90;4.47;;;9.80;99.90;;;;;;4992007;28;20462;-71
2024/03/20 03:12:04;;;;;;;9.13;4.00;;;9.90;99.90;;;;;;4992982;28;20435;-72
2024/03/20 03:14:32;;;;;;;6.27;3.40;;;9.90;99.90;;;;;;4992037;28;20443;-71
2024/03/20 03:16:58;;;;;;;6.27;3.50;;;10.00;99.90;;;;;;4988868;28;21131;-71
2024/03/20 03:19:25;;;;;;;6.00;3.83;;;10.10;99.90;;;;;;4997830;28;20813;-71
2024/03/20 03:21:52;;;;;;;7.13;4.47;;;10.10;99.90;;;;;;4993534;28;20812;-71
2024/03/20 03:24:19;;;;;;;6.83;3.40;;;10.10;99.90;;;;;;4995184;28;20465;-71
2024/03/20 03:26:45;;;;;;;4.07;3.07;;;10.10;99.90;;;;;;4997109;28;20472;-71
2024/03/20 03:29:12;;;;;;;9.70;3.83;;;10.10;99.90;;;;;;4998351;28;20451;-72
2024/03/20 03:31:40;;;;;;;13.57;3.57;;;10.00;99.90;;;;;;4995687;28;20534;-72
2024/03/20 03:34:07;;;;;;;6.40;2.80;;;10.00;99.90;;;;;;4994974;28;20432;-72
2024/03/20 03:36:34;;;;;;;4.07;2.93;;;10.00;99.90;;;;;;4988742;28;21012;-71
2024/03/20 03:39:01;;;;;;;12.90;3.20;;;10.00;99.90;;;;;;5000819;28;20865;-72
2024/03/20 03:41:28;;;;;;;7.93;3.60;;;9.90;99.90;;;;;;4992365;28;20827;-72
2024/03/20 03:43:54;;;;;;;4.20;2.70;;;9.90;99.90;;;;;;4994548;28;20462;-72
2024/03/20 03:46:21;;;;;;;3.97;3.20;;;9.90;99.90;;;;;;4993025;28;20440;-72
2024/03/20 03:48:49;;;;;;;15.47;2.80;;;9.80;99.90;;;;;;4996735;28;20962;-72
2024/03/20 03:51:16;;;;;;;3.73;2.80;;;9.80;99.90;;;;;;4993011;28;20443;-72
2024/03/20 03:53:43;;;;;;;7.07;3.47;;;9.90;99.90;;;;;;4990481;28;20440;-72
2024/03/20 03:56:10;;;;;;;10.87;3.30;;;9.80;99.90;;;;;;4993744;28;20461;-72
2024/03/20 03:58:37;;;;;;;6.90;3.13;;;9.80;99.90;;;;;;4997579;28;20436;-71
2024/03/20 04:01:04;;;;;;;8.30;3.30;;;9.90;99.90;;;;;;4996903;28;20942;-71
2024/03/20 04:03:30;;;;;;;10.57;4.47;;;9.90;99.90;;;;;;4995242;28;20471;-71
2024/03/20 04:06:00;;;;;;;5.53;3.53;;;9.90;99.90;;;;;;4992038;28;20483;-70
2024/03/20 04:08:27;;;;;;;5.03;3.50;;;9.80;99.90;;;;;;4986202;28;20509;-70
2024/03/20 04:10:54;;;;;;;3.73;3.13;;;9.90;99.90;;;;;;4990562;28;20800;-69
2024/03/20 04:13:21;;;;;;;6.17;3.80;;;10.00;99.90;;;;;;5000126;28;20947;-70
2024/03/20 04:15:48;;;;;;;8.90;3.07;;;10.00;99.90;;;;;;4996671;28;20556;-69
2024/03/20 04:18:17;;;;;;;3.50;3.20;;;9.90;99.90;;;;;;4998745;28;20807;-69
2024/03/20 04:20:44;;;;;;;4.37;3.00;;;9.80;99.90;;;;;;4993415;28;20451;-71
2024/03/20 04:23:12;;;;;;;5.07;2.80;;;9.80;99.90;;;;;;4995021;28;20933;-70
2024/03/20 04:25:39;;;;;;;7.10;4.13;;;9.70;99.90;;;;;;4993228;28;20559;-70
2024/03/20 04:28:07;;;;;;;8.27;3.10;;;9.70;99.90;;;;;;4999844;28;20511;-70
2024/03/20 04:30:34;;;;;;;3.53;3.20;;;9.60;99.90;;;;;;4998835;28;20467;-70
2024/03/20 04:33:01;;;;;;;4.70;3.73;;;9.70;99.90;;;;;;4995335;28;21086;-70
2024/03/20 04:35:27;;;;;;;6.50;3.67;;;9.60;99.90;;;;;;4993646;28;20495;-71
2024/03/20 04:37:54;;;;;;;3.83;2.93;;;9.60;99.90;;;;;;4996774;28;20465;-70
2024/03/20 04:40:22;;;;;;;13.90;6.43;;;9.50;99.90;;;;;;5001490;28;20456;-70
2024/03/20 04:42:49;;;;;;;6.40;3.53;;;9.50;99.90;;;;;;4995286;28;20436;-70
2024/03/20 04:45:16;;;;;;;4.70;3.17;;;9.40;99.90;;;;;;4999045;28;20949;-70
2024/03/20 04:47:43;;;;;;;3.17;2.70;;;9.40;99.90;;;;;;4995374;28;20644;-70
2024/03/20 04:50:12;;;;;;;4.97;3.73;;;9.40;99.90;;;;;;4994307;28;20484;-70
2024/03/20 04:52:39;;;;;;;3.93;3.07;;;9.40;99.90;;;;;;4990600;28;20448;-71
2024/03/20 04:55:06;;;;;;;4.30;3.20;;;9.50;99.90;;;;;;4999640;28;20477;-70
2024/03/20 04:57:35;;;;;;;6.30;3.67;;;9.30;99.90;;;;;;4991986;28;20991;-71
2024/03/20 05:00:05;;;;;;;4.43;3.27;;;9.30;99.90;;;;;;4997107;28;20596;-71
2024/03/20 05:02:31;;;;;;;4.07;2.87;;;9.20;99.90;;;;;;4998087;28;20530;-71
2024/03/20 05:04:58;;;;;;;4.40;3.30;;;9.30;99.90;;;;;;4992945;28;20518;-71
2024/03/20 05:07:25;;;;;;;5.10;3.10;;;9.50;99.90;;;;;;4995332;28;20443;-70
2024/03/20 05:09:51;;;;;;;4.67;3.07;;;9.50;99.90;;;;;;4999679;28;20496;-70
2024/03/20 05:12:18;;;;;;;5.23;3.40;;;9.40;99.90;;;;;;5001678;28;20443;-70
2024/03/20 05:14:46;;;;;;;8.10;3.60;;;9.40;99.90;;;;;;4994457;28;20431;-69
2024/03/20 05:17:13;;;;;;;4.17;3.53;;;9.30;99.90;;;;;;5001893;28;20440;-70
2024/03/20 05:19:40;;;;;;;6.30;3.33;;;9.20;99.90;;;;;;5003859;28;20469;-70
2024/03/20 05:22:06;;;;;;;5.37;3.30;;;9.20;99.90;;;;;;4999280;28;20457;-70
2024/03/20 05:24:33;;;;;;;4.77;4.00;;;9.20;99.90;;;;;;5002581;28;20423;-71
2024/03/20 05:26:58;;;;;;;4.33;3.47;;;9.20;99.90;;;;;;4992964;28;20976;-71
2024/03/20 05:29:25;;;;;;;5.93;4.17;;;9.20;99.90;;;;;;4992872;28;20475;-70
2024/03/20 05:31:53;;;;;;;9.23;4.43;;;9.30;99.90;;;;;;4988722;28;20289;-71
2024/03/20 05:34:19;;;;;;;6.67;3.10;;;9.30;99.90;;;;;;4995622;28;20436;-71
2024/03/20 05:36:46;;;;;;;6.93;2.70;;;9.20;99.90;;;;;;4997558;28;20431;-70
2024/03/20 05:39:11;;;;;;;5.40;3.53;;;9.30;99.90;;;;;;5001348;28;20206;-71
2024/03/20 05:41:39;;;;;;;5.10;3.70;;;9.30;99.90;;;;;;4993397;28;20443;-72
2024/03/20 05:44:05;;;;;;;6.03;4.33;;;9.40;99.90;;;;;;4995442;28;20353;-70
2024/03/20 05:46:32;;;;;;;8.00;4.50;;;9.50;99.90;;;;;;4996678;28;20439;-70
2024/03/20 05:48:59;;;;;;;10.90;4.63;;;9.60;99.90;;;;;;4997420;28;20560;-71
2024/03/20 05:51:26;;;;;;;5.10;4.37;;;9.70;99.90;;;;;;4996387;28;20604;-70
2024/03/20 05:53:52;;;;;;;9.00;3.20;;;9.80;99.90;;;;;;4997002;28;20457;-72
2024/03/20 05:56:19;;;;;;;5.93;3.90;;;9.80;99.90;;;;;;4996356;28;20439;-73
2024/03/20 05:58:45;;;;;;;5.90;3.53;;;9.80;99.90;;;;;;4995324;28;20202;-70
2024/03/20 06:01:12;;;;;;;7.40;3.10;;;9.70;99.90;;;;;;4995248;28;20470;-70
2024/03/20 06:03:37;;;;;;;8.63;5.10;;;9.70;99.90;;;;;;4995881;28;20202;-71
2024/03/20 06:06:06;;;;;;;12.43;4.87;;;9.70;99.90;;;;;;4999184;28;20435;-71
2024/03/20 06:08:33;;;;;;;4.73;3.27;;;9.80;99.90;;;;;;5004258;28;20693;-72
2024/03/20 06:11:01;;;;;;;6.60;3.80;;;9.80;99.90;;;;;;5001446;28;20477;-70
2024/03/20 06:13:28;;;;;;;5.67;3.50;;;9.70;99.90;;;;;;4996754;28;20463;-71
2024/03/20 06:15:54;;;;;;;6.90;4.30;;;9.70;99.90;;;;;;4998969;28;20452;-70
2024/03/20 06:18:21;;;;;;;3.73;3.23;;;9.60;99.90;;;;;;5000299;28;20513;-71
2024/03/20 06:20:47;;;;;;;7.13;3.40;;;9.70;99.90;;;;;;4998913;28;20485;-70
2024/03/20 06:23:15;;;;;;;10.27;4.67;;;9.80;99.90;;;;;;4998754;28;22799;-70
2024/03/20 06:25:41;;;;;;;12.73;4.27;;;9.90;99.90;;;;;;4997237;28;20660;-70
2024/03/20 06:28:07;;;;;;;12.53;4.13;;;10.00;99.90;;;;;;5004020;28;20453;-70
2024/03/20 06:30:33;;;;;;;12.30;5.63;;;10.10;99.90;;;;;;5002847;28;20214;-71
2024/03/20 06:33:01;;;;;;;14.23;5.43;;;10.20;99.90;;;;;;5001836;28;20458;-71
2024/03/20 06:35:28;;;;;;;9.33;4.93;;;10.20;99.90;;;;;;4996116;28;20480;-70
2024/03/20 06:37:55;;;;;;;9.53;4.90;;;10.30;99.90;;;;;;5002372;28;20477;-70
2024/03/20 06:40:27;;;;;;;8.53;5.40;;;10.60;99.90;;;;;;5002936;28;20456;-71
2024/03/20 06:42:54;;;;;;;9.13;5.03;;;10.60;99.90;;;;;;4998516;28;20458;-71
2024/03/20 06:45:20;;;;;;;7.20;4.37;;;10.70;99.90;;;;;;4998486;28;20524;-71
2024/03/20 06:47:47;;;;;;;8.13;4.63;;;10.80;99.90;;;;;;5001744;28;20427;-71
2024/03/20 06:50:13;;;;;;;6.00;5.40;;;10.90;99.90;;;;;;5004299;28;20486;-71
2024/03/20 06:52:40;;;;;;;6.50;4.33;;;11.10;99.90;;;;;;5008373;28;20452;-70
2024/03/20 06:55:07;;;;;;;21.47;5.30;;;11.30;99.90;;;;;;4996159;28;20230;-71
2024/03/20 06:57:35;;;;;;;21.93;6.00;;;11.50;99.90;;;;;;4997976;28;20470;-70
2024/03/20 07:00:06;;;;;;;7.67;4.07;;;11.70;99.90;;;;;;5000609;28;20479;-70
2024/03/20 07:02:33;;;;;;;15.87;4.37;;;11.80;99.90;;;;;;5004926;28;20428;-70
2024/03/20 07:04:59;;;;;;;25.43;4.27;;;11.80;99.90;;;;;;5002231;28;20869;-70
2024/03/20 07:07:27;;;;;;;17.30;6.43;;;12.10;99.90;;;;;;5007838;28;20556;-70
2024/03/20 07:09:52;;;;;;;13.97;6.10;;;12.40;99.90;;;;;;5006303;28;20501;-71
2024/03/20 07:12:19;;;;;;;8.83;3.70;;;12.40;99.90;;;;;;5003709;28;20432;-70
2024/03/20 07:14:46;;;;;;;15.63;6.43;;;12.50;99.90;;;;;;5004201;28;20282;-70
2024/03/20 07:17:13;;;;;;;31.20;6.20;;;12.70;99.90;;;;;;5003173;28;20540;-71
2024/03/20 07:19:39;;;;;;;10.43;4.20;;;12.90;99.90;;;;;;5002795;28;20466;-70
2024/03/20 07:22:07;;;;;;;17.10;4.30;;;13.00;99.90;;;;;;5007491;28;20457;-70
2024/03/20 07:24:33;;;;;;;8.30;4.70;;;13.30;99.90;;;;;;5003119;28;21086;-70
2024/03/20 07:27:00;;;;;;;9.60;3.70;;;13.50;99.90;;;;;;4998177;28;20557;-70
2024/03/20 07:29:27;;;;;;;10.43;5.97;;;13.60;99.90;;;;;;5002149;28;20223;-72
2024/03/20 07:31:55;;;;;;;9.23;5.33;;;13.70;99.90;;;;;;5004727;28;20832;-72
2024/03/20 07:34:21;;;;;;;13.97;5.60;;;13.80;99.90;;;;;;5000678;28;20997;-72
2024/03/20 07:36:47;;;;;;;10.30;4.43;;;13.90;99.90;;;;;;4996386;28;20457;-72
2024/03/20 07:39:13;;;;;;;8.87;4.80;;;14.00;99.90;;;;;;5005760;28;20591;-71
2024/03/20 07:41:40;;;;;;;11.93;4.93;;;14.10;99.90;;;;;;5006165;28;20439;-72
2024/03/20 07:44:06;;;;;;;9.00;3.90;;;14.20;99.90;;;;;;5002252;28;20213;-72
2024/03/20 07:46:32;;;;;;;8.60;4.67;;;14.50;99.90;;;;;;5000046;28;20942;-72
2024/03/20 07:49:01;;;;;;;7.60;4.03;;;14.80;99.90;;;;;;5007179;28;20329;-72
2024/03/20 07:51:28;;;;;;;11.10;3.90;;;15.00;99.90;;;;;;5002752;28;20457;-71
2024/03/20 07:53:55;;;;;;;10.43;4.27;;;15.10;99.90;;;;;;5000028;28;21127;-71
2024/03/20 07:56:22;;;;;;;9.40;4.47;;;15.40;99.90;;;;;;4999210;28;21307;-72
2024/03/20 07:58:47;;;;;;;13.53;4.43;;;15.60;99.90;;;;;;5002660;28;20450;-72
2024/03/20 08:01:15;;;;;;;6.13;3.80;;;15.80;99.90;;;;;;5000942;28;20476;-72
2024/03/20 08:03:43;;;;;;;13.60;5.77;;;16.00;99.90;;;;;;4995719;28;20197;-72
2024/03/20 08:06:11;;;;;;;9.33;4.40;;;16.20;99.90;;;;;;5000152;28;20461;-72
2024/03/20 08:08:37;;;;;;;12.13;4.83;;;16.40;99.90;;;;;;5002192;28;20493;-71
2024/03/20 08:11:04;;;;;;;7.50;4.90;;;16.20;99.90;;;;;;5000709;28;20492;-72
2024/03/20 08:13:30;;;;;;;7.33;4.73;;;16.40;99.90;;;;;;5000934;28;20213;-71
2024/03/20 08:15:57;;;;;;;10.53;5.97;;;16.70;99.90;;;;;;4994782;28;21577;-71
2024/03/20 08:18:23;;;;;;;11.93;4.03;;;17.00;99.90;;;;;;5003631;28;20960;-71
2024/03/20 08:20:49;;;;;;;5.93;4.13;;;16.90;99.90;;;;;;5001875;28;20477;-72
2024/03/20 08:23:16;;;;;;;10.10;4.13;;;16.80;99.90;;;;;;5004175;28;20965;-72
2024/03/20 08:25:43;;;;;;;10.37;3.93;;;17.10;99.90;;;;;;5000048;28;20473;-71
2024/03/20 08:28:09;;;;;;;6.17;4.17;;;17.40;99.90;;;;;;5003449;28;20483;-72
2024/03/20 08:30:39;;;;;;;10.17;5.20;;;17.80;99.90;;;;;;5002183;28;20493;-71
2024/03/20 08:33:04;;;;;;;8.70;4.60;;;18.00;99.90;;;;;;4998633;28;20213;-72
2024/03/20 08:35:31;;;;;;;11.63;5.23;;;18.20;99.90;;;;;;5003454;28;20456;-71
2024/03/20 08:37:57;;;;;;;10.10;4.20;;;18.60;99.90;;;;;;5004226;28;20226;-72
2024/03/20 08:40:25;;;;;;;10.13;5.73;;;18.60;99.90;;;;;;5001274;28;20583;-72
2024/03/20 08:42:51;;;;;;;30.47;7.37;;;18.60;99.90;;;;;;5001433;28;20207;-71
2024/03/20 08:45:18;;;;;;;9.50;5.33;;;18.60;99.90;;;;;;5006773;28;20468;-72
2024/03/20 08:47:47;;;;;;;7.93;4.73;;;18.70;99.90;;;;;;5000219;28;20995;-71
2024/03/20 08:50:14;;;;;;;9.47;5.07;;;19.10;99.90;;;;;;5001151;28;20861;-72
2024/03/20 08:52:40;;;;;;;9.07;5.77;;;19.50;99.90;;;;;;5004025;28;20514;-71
2024/03/20 08:55:07;;;;;;;10.27;5.33;;;20.00;99.90;;;;;;4999870;28;20479;-73
2024/03/20 08:57:35;;;;;;;14.63;5.57;;;20.30;99.90;;;;;;5004724;28;20213;-72
2024/03/20 09:00:05;;;;;;;10.30;4.67;;;20.60;99.90;;;;;;5003415;28;20496;-72
2024/03/20 09:02:31;;;;;;;6.33;5.60;;;20.90;99.90;;;;;;5004127;28;20868;-73
2024/03/20 09:04:58;;;;;;;16.93;5.27;;;21.30;99.90;;;;;;5004491;28;21128;-72
2024/03/20 09:07:24;;;;;;;8.40;5.27;;;21.40;99.90;;;;;;4995420;28;20465;-72
2024/03/20 09:09:51;;;;;;;7.37;5.30;;;21.30;99.90;;;;;;5004862;28;20515;-72
2024/03/20 09:12:17;;;;;;;8.57;4.97;;;21.60;99.90;;;;;;5004818;28;20194;-73
2024/03/20 09:14:45;;;;;;;7.10;4.63;;;22.10;99.90;;;;;;4999409;28;20468;-72
2024/03/20 09:17:10;;;;;;;8.07;5.20;;;22.30;99.90;;;;;;5004101;28;20617;-72
2024/03/20 09:19:37;;;;;;;6.40;4.20;;;22.70;99.90;;;;;;5004788;28;20461;-72
2024/03/20 09:22:04;;;;;;;6.07;4.50;;;23.00;99.90;;;;;;5003338;28;20210;-71
2024/03/20 09:24:30;;;;;;;6.30;4.70;;;22.70;99.90;;;;;;5001779;28;21156;-71
2024/03/20 09:26:56;;;;;;;11.97;4.63;;;22.60;99.90;;;;;;5000369;28;20964;-72
2024/03/20 09:29:23;;;;;;;6.70;4.77;;;22.90;99.90;;;;;;5003346;28;20487;-72
2024/03/20 09:31:50;;;;;;;5.07;3.60;;;23.50;99.90;;;;;;4999902;28;20202;-72
2024/03/20 09:34:19;;;;;;;5.13;3.50;;;23.40;99.90;;;;;;5001820;28;21250;-72
2024/03/20 09:36:44;;;;;;;25.73;5.57;;;23.50;99.90;;;;;;4999214;28;20456;-71
2024/03/20 09:39:12;;;;;;;6.40;4.53;;;23.70;99.90;;;;;;5002768;28;20488;-72
2024/03/20 09:41:39;;;;;;;16.47;4.63;;;23.50;99.90;;;;;;4998604;28;20203;-70
2024/03/20 09:44:06;;;;;;;9.17;4.97;;;23.80;99.90;;;;;;5001731;28;20574;-70
2024/03/20 09:46:32;;;;;;;8.60;4.47;;;24.40;99.90;;;;;;4994196;28;20553;-71
2024/03/20 09:49:00;;;;;;;5.40;4.57;;;25.10;99.90;;;;;;5000155;28;21010;-71
2024/03/20 09:51:27;;;;;;;4.67;4.13;;;25.20;99.90;;;;;;5001260;28;20282;-70
2024/03/20 09:53:54;;;;;;;21.53;4.27;;;25.60;99.90;;;;;;4996877;28;20551;-70
2024/03/20 09:56:21;;;;;;;8.97;4.50;;;25.60;99.90;;;;;;5000328;28;20484;-70
2024/03/20 09:58:49;;;;;;;6.57;4.87;;;26.10;99.90;;;;;;5001553;28;20453;-71
2024/03/20 10:01:16;;;;;;;10.30;4.70;;;26.20;99.90;;;;;;4999478;28;20474;-71
2024/03/20 10:03:44;;;;;;;9.17;5.03;;;26.20;99.90;;;;;;4999483;28;20453;-71
2024/03/20 10:06:11;;;;;;;8.50;5.77;;;26.40;99.90;;;;;;5000740;28;20864;-70
2024/03/20 10:08:39;;;;;;;5.60;4.60;;;25.80;99.90;;;;;;5003445;28;20453;-71
2024/03/20 10:11:05;;;;;;;6.13;4.30;;;26.50;99.90;;;;;;5001241;28;20527;-70
2024/03/20 10:13:32;;;;;;;4.53;3.93;;;26.80;99.90;;;;;;4998759;28;21003;-71
2024/03/20 10:16:05;;;;;;;12.67;5.60;;;27.20;99.00;;;;;;5004049;28;20544;-70
2024/03/20 10:18:32;;;;;;;5.87;4.43;;;27.50;98.30;;;;;;5001346;28;21315;-70
2024/03/20 10:20:58;;;;;;;13.53;5.00;;;27.40;97.30;;;;;;5006270;28;20539;-71
2024/03/20 10:23:26;;;;;;;10.13;4.07;;;27.00;97.00;;;;;;5000379;28;20452;-70
2024/03/20 10:25:52;;;;;;;15.00;5.83;;;27.20;97.10;;;;;;5000944;28;20301;-71
2024/03/20 10:28:23;;;;;;;6.50;3.80;;;27.40;97.30;;;;;;5006741;28;20489;-71
2024/03/20 10:30:51;;;;;;;9.67;4.50;;;27.20;97.00;;;;;;5001035;28;20491;-71
2024/03/20 10:33:19;;;;;;;8.10;4.33;;;27.70;96.90;;;;;;5006853;28;20457;-70
2024/03/20 10:35:50;;;;;;;12.20;5.13;;;28.50;95.20;;;;;;5001012;28;20820;-70
2024/03/20 10:38:19;;;;;;;4.40;4.00;;;29.10;95.30;;;;;;5001708;28;20453;-70
2024/03/20 10:40:48;;;;;;;13.33;4.23;;;28.20;94.30;;;;;;5002311;28;20591;-70
2024/03/20 10:43:18;;;;;;;7.43;4.07;;;28.80;94.40;;;;;;5005936;28;20774;-70
2024/03/20 10:45:45;;;;;;;6.80;4.43;;;29.30;92.60;;;;;;4999321;28;20461;-70
2024/03/20 10:48:16;;;;;;;8.20;4.27;;;29.40;92.80;;;;;;5003172;28;20536;-71
2024/03/20 10:50:43;;;;;;;8.03;3.63;;;29.60;92.00;;;;;;5001747;28;20900;-71
2024/03/20 10:53:10;;;;;;;12.57;4.10;;;29.60;92.70;;;;;;5002446;28;21963;-71
2024/03/20 10:55:36;;;;;;;10.77;4.53;;;29.60;92.50;;;;;;5008203;28;20461;-71
2024/03/20 10:58:07;;;;;;;5.80;3.70;;;29.10;92.40;;;;;;5006247;28;20479;-71
2024/03/20 11:00:34;;;;;;;3.47;2.93;;;29.10;91.80;;;;;;5004028;28;21062;-70
2024/03/20 11:03:40;;;;;;;4.20;3.10;;;28.60;90.70;;;;;;5000346;28;20544;-71
2024/03/20 11:06:40;;;;;;;4.43;3.93;;;27.80;92.70;;;;;;5001493;28;20473;-70
2024/03/20 11:09:20;;;;;;;5.83;4.00;;;27.50;92.30;;;;;;5004847;28;20555;-71
2024/03/20 11:11:46;;;;;;;5.70;4.20;;;28.10;91.60;;;;;;5002362;28;20485;-70
2024/03/20 11:14:25;;;;;;;6.77;3.57;;;28.20;91.20;;;;;;5005036;28;20558;-69
2024/03/20 11:16:52;;;;;;;13.03;3.83;;;28.30;90.50;;;;;;5000667;28;20528;-71
2024/03/20 11:19:20;;;;;;;4.20;2.90;;;28.20;92.30;;;;;;5002330;28;20461;-71
2024/03/20 11:21:48;;;;;;;7.17;3.30;;;28.20;90.50;;;;;;5003023;28;20469;-70
2024/03/20 11:24:15;;;;;;;4.30;2.93;;;27.40;90.30;;;;;;5002265;28;21038;-70
2024/03/20 11:26:41;;;;;;;9.87;3.90;;;26.30;91.60;;;;;;4997473;28;20461;-70
2024/03/20 11:29:10;;;;;;;4.53;2.57;;;26.40;92.10;;;;;;5000785;28;20448;-70
2024/03/20 11:31:38;;;;;;;5.93;2.87;;;26.40;92.10;;;;;;5003413;28;20576;-70
2024/03/20 11:34:05;;;;;;;7.53;3.40;;;26.10;92.20;;;;;;5003039;28;20464;-71
2024/03/20 11:36:31;;;;;;;5.53;2.97;;;26.50;93.70;;;;;;5006975;28;20461;-70
2024/03/20 11:38:58;;;;;;;3.93;2.43;;;27.30;93.00;;;;;;4998861;28;20493;-70
2024/03/20 11:41:24;;;;;;;4.97;2.87;;;28.00;90.10;;;;;;5004934;28;21244;-70
2024/03/20 11:43:51;;;;;;;2.30;2.10;;;28.00;90.00;;;;;;5000577;28;20543;-70
2024/03/20 11:46:17;;;;;;;3.07;2.70;;;27.70;91.10;;;;;;5006597;28;20209;-70
2024/03/20 11:48:47;;;;;;;6.80;3.03;;;27.20;91.10;;;;;;4998183;28;21245;-70
2024/03/20 11:51:15;;;;;;;5.50;3.73;;;26.60;91.70;;;;;;5003409;28;20503;-70
2024/03/20 11:53:43;;;;;;;3.03;2.10;;;27.20;92.90;;;;;;5003694;28;20871;-70
2024/03/20 11:56:09;;;;;;;3.90;2.70;;;27.90;91.20;;;;;;5003278;28;20465;-69
2024/03/20 11:58:36;;;;;;;3.43;2.10;;;28.20;89.10;;;;;;5002593;28;20453;-70
2024/03/20 12:01:04;;;;;;;13.27;2.73;;;28.10;87.30;;;;;;4996164;28;20481;-69
2024/03/20 12:03:34;;;;;;;6.10;2.43;;;28.50;88.70;;;;;;5001312;28;20450;-70
2024/03/20 12:06:12;;;;;;;4.23;2.10;;;27.80;87.80;;;;;;4998975;28;20460;-70
2024/03/20 12:08:40;;;;;;;3.70;2.53;;;26.80;87.20;;;;;;5003670;28;20465;-69
2024/03/20 12:11:14;;;;;;;4.37;2.20;;;26.00;89.90;;;;;;4997416;28;20494;-70
2024/03/20 12:13:41;;;;;;;3.37;2.80;;;25.40;90.50;;;;;;5003079;28;20560;-69
2024/03/20 12:16:07;;;;;;;2.27;1.97;;;25.60;92.10;;;;;;4997268;28;20519;-70
2024/03/20 12:18:34;;;;;;;6.40;5.70;;;26.50;92.20;;;;;;5006289;28;20795;-71
2024/03/20 12:21:00;;;;;;;4.17;2.93;;;26.70;91.10;;;;;;5000215;28;20865;-70
2024/03/20 12:23:28;;;;;;;7.80;3.20;;;27.30;91.00;;;;;;5003086;28;20444;-71
2024/03/20 12:25:54;;;;;;;4.03;3.50;;;27.50;90.50;;;;;;4995117;28;20473;-71
2024/03/20 12:28:21;;;;;;;6.53;3.13;;;27.40;90.10;;;;;;5005327;28;20458;-70
2024/03/20 12:30:50;;;;;;;3.57;3.27;;;27.90;86.70;;;;;;5000072;28;20226;-70
2024/03/20 12:33:18;;;;;;;4.90;2.80;;;28.30;85.30;;;;;;4997687;28;20495;-70
2024/03/20 12:35:45;;;;;;;5.60;2.97;;;28.20;84.00;;;;;;5000592;28;20471;-69
2024/03/20 12:38:11;;;;;;;7.57;3.67;;;27.70;83.10;;;;;;5000346;28;20471;-70
2024/03/20 12:40:38;;;;;;;4.83;3.97;;;27.20;83.90;;;;;;5002382;28;20476;-69
2024/03/20 12:43:06;;;;;;;3.20;2.90;;;26.60;86.10;;;;;;4997438;28;20468;-70
2024/03/20 12:45:31;;;;;;;6.90;3.37;;;27.00;86.80;;;;;;5001321;28;20647;-70